ES-0049 weather

Aerodrómo de Sanchidrián
Sanchidrián, Ávila, Spain

Public forecast

Using degrees Celsius for public forecast. Weather courtesy of forecast.io.

Closest aviation weather report (METAR) to Aerodrómo de Sanchidrián

Closest report is Salamanca Airport, 40.6 nm (75.2 km) W. Retrieved 2019/10/14 18:30 UTC (0 seconds ago):

LESA 141830Z AUTO 27011KT 240V300 9999 -RA FEW025 SCT033 BKN048 08/06 Q1016

Closest aviation forecast (TAF) to Aerodrómo de Sanchidrián

Closest forecast is Salamanca Airport, 40.6 nm (75.2 km) W. Retrieved 2019/10/14 18:27 UTC (0 seconds ago):

TAF LESA 141700Z 1418/1518 26010KT 9999 SCT025 TX15/1514Z TN05/1506Z PROB40 TEMPO 1418/1420 4000 RA SHRA SCT030TCU PROB40 TEMPO 1422/1509 3000 BR BKN006